Long Point, Illinois
Current Conditions -  °F | °C
As of 12:15 AM on Saturday 25 Oct 2014 (Local Time) from KPNT Reporting Station
Overcast Overcast  
Wind Chill: 61°   Ceiling: 6000
Heat Index: 61°   Visibility: 10mi
Dew Point: 54°   Wind: 8mph
Humidity: 78%   Direction: 220°SW
Pressure: 29.94"   Gusts: NA
Location:  41°N, 88.89°W
Report Text: KPNT 250515Z AUTO 22007KT 10SM SCT033 OVC060 16/12 A2994 RMK AO2 T01620123
Loading
Personal Weather Stations






























Interactive Weather Map
Tropical Storm Tracking
New forecast layout! Learn more

10-Day Weather Forecast

Advertisements
Track Severe Weather on mobile